sensor_id;sensor_type;location;lat;lon;timestamp;pressure;altitude;pressure_sealevel;temperature;humidity
73341;BME280;61578;52.002;5.468;2023-11-19T00:00:02;100751.06;;;15.61;87.67
73341;BME280;61578;52.002;5.468;2023-11-19T00:00:55;100744.63;;;15.64;87.34
73341;BME280;61578;52.002;5.468;2023-11-19T00:01:46;100750.22;;;15.61;87.08
73341;BME280;61578;52.002;5.468;2023-11-19T00:02:38;100756.44;;;15.61;87.37
73341;BME280;61578;52.002;5.468;2023-11-19T00:03:29;100743.75;;;15.63;87.53
73341;BME280;61578;52.002;5.468;2023-11-19T00:04:20;100755.44;;;15.62;87.46
73341;BME280;61578;52.002;5.468;2023-11-19T00:05:11;100723.31;;;15.41;87.11
73341;BME280;61578;52.002;5.468;2023-11-19T00:06:02;100741.34;;;15.60;87.60
73341;BME280;61578;52.002;5.468;2023-11-19T00:06:55;100738.28;;;15.65;87.77
73341;BME280;61578;52.002;5.468;2023-11-19T00:07:48;100731.63;;;15.59;87.15
73341;BME280;61578;52.002;5.468;2023-11-19T00:08:39;100750.28;;;15.70;87.21
73341;BME280;61578;52.002;5.468;2023-11-19T00:09:30;100737.44;;;15.64;86.93
73341;BME280;61578;52.002;5.468;2023-11-19T00:10:22;100740.78;;;15.57;87.50
73341;BME280;61578;52.002;5.468;2023-11-19T00:11:13;100697.25;;;15.34;87.03
73341;BME280;61578;52.002;5.468;2023-11-19T00:12:07;100718.03;;;15.51;87.35
73341;BME280;61578;52.002;5.468;2023-11-19T00:12:58;100739.38;;;15.62;87.08
73341;BME280;61578;52.002;5.468;2023-11-19T00:13:49;100713.72;;;15.60;87.43
73341;BME280;61578;52.002;5.468;2023-11-19T00:14:40;100720.78;;;15.61;87.71
73341;BME280;61578;52.002;5.468;2023-11-19T00:15:31;100730.50;;;15.62;87.27
73341;BME280;61578;52.002;5.468;2023-11-19T00:16:22;100720.22;;;15.57;87.58
73341;BME280;61578;52.002;5.468;2023-11-19T00:17:13;100720.91;;;15.59;87.12
73341;BME280;61578;52.002;5.468;2023-11-19T00:18:05;100725.56;;;15.57;87.69
73341;BME280;61578;52.002;5.468;2023-11-19T00:18:56;100695.00;;;15.39;87.95
73341;BME280;61578;52.002;5.468;2023-11-19T00:19:47;100722.63;;;15.60;87.89
73341;BME280;61578;52.002;5.468;2023-11-19T00:20:39;100722.91;;;15.57;88.15
73341;BME280;61578;52.002;5.468;2023-11-19T00:21:31;100715.22;;;15.53;88.32
73341;BME280;61578;52.002;5.468;2023-11-19T00:22:24;100718.53;;;15.56;88.15
73341;BME280;61578;52.002;5.468;2023-11-19T00:23:16;100678.19;;;15.27;87.93
73341;BME280;61578;52.002;5.468;2023-11-19T00:24:08;100705.19;;;15.45;88.30
73341;BME280;61578;52.002;5.468;2023-11-19T00:24:59;100719.00;;;15.50;88.06
73341;BME280;61578;52.002;5.468;2023-11-19T00:25:51;100717.72;;;15.44;88.18
73341;BME280;61578;52.002;5.468;2023-11-19T00:26:42;100719.41;;;15.45;88.43
73341;BME280;61578;52.002;5.468;2023-11-19T00:27:33;100726.31;;;15.48;88.75
73341;BME280;61578;52.002;5.468;2023-11-19T00:28:24;100724.47;;;15.48;88.46
73341;BME280;61578;52.002;5.468;2023-11-19T00:29:16;100721.25;;;15.45;88.67
73341;BME280;61578;52.002;5.468;2023-11-19T00:30:09;100723.50;;;15.50;88.46
73341;BME280;61578;52.002;5.468;2023-11-19T00:31:01;100723.25;;;15.53;88.45
73341;BME280;61578;52.002;5.468;2023-11-19T00:31:53;100681.44;;;15.31;88.59
73341;BME280;61578;52.002;5.468;2023-11-19T00:32:45;100723.25;;;15.53;87.96
73341;BME280;61578;52.002;5.468;2023-11-19T00:33:36;100673.84;;;15.26;88.10
73341;BME280;61578;52.002;5.468;2023-11-19T00:34:28;100726.06;;;15.51;88.36
73341;BME280;61578;52.002;5.468;2023-11-19T00:35:19;100686.78;;;15.31;88.38
73341;BME280;61578;52.002;5.468;2023-11-19T00:36:10;100724.09;;;15.53;88.39
73341;BME280;61578;52.002;5.468;2023-11-19T00:37:02;100721.56;;;15.52;88.37
73341;BME280;61578;52.002;5.468;2023-11-19T00:37:54;100734.94;;;15.52;88.26
73341;BME280;61578;52.002;5.468;2023-11-19T00:38:45;100731.94;;;15.45;88.45
73341;BME280;61578;52.002;5.468;2023-11-19T00:39:36;100733.66;;;15.46;88.36
73341;BME280;61578;52.002;5.468;2023-11-19T00:40:27;100741.09;;;15.42;88.39
73341;BME280;61578;52.002;5.468;2023-11-19T00:41:19;100742.25;;;15.50;88.22
73341;BME280;61578;52.002;5.468;2023-11-19T00:42:11;100738.59;;;15.51;88.09
73341;BME280;61578;52.002;5.468;2023-11-19T00:43:02;100733.34;;;15.49;88.06
73341;BME280;61578;52.002;5.468;2023-11-19T00:43:53;100681.13;;;15.24;88.53
73341;BME280;61578;52.002;5.468;2023-11-19T00:44:44;100724.22;;;15.52;88.27
73341;BME280;61578;52.002;5.468;2023-11-19T00:45:36;100724.09;;;15.53;87.98
73341;BME280;61578;52.002;5.468;2023-11-19T00:46:27;100721.81;;;15.48;88.22
73341;BME280;61578;52.002;5.468;2023-11-19T00:47:18;100715.59;;;15.48;88.50
73341;BME280;61578;52.002;5.468;2023-11-19T00:48:12;100671.78;;;15.19;88.15
73341;BME280;61578;52.002;5.468;2023-11-19T00:49:03;100718.44;;;15.46;88.18
73341;BME280;61578;52.002;5.468;2023-11-19T00:49:54;100714.19;;;15.44;88.04
73341;BME280;61578;52.002;5.468;2023-11-19T00:50:46;100719.13;;;15.48;87.67
73341;BME280;61578;52.002;5.468;2023-11-19T00:51:37;100714.19;;;15.44;88.18
73341;BME280;61578;52.002;5.468;2023-11-19T00:52:28;100704.91;;;15.48;88.24
73341;BME280;61578;52.002;5.468;2023-11-19T00:53:19;100705.06;;;15.46;87.74
73341;BME280;61578;52.002;5.468;2023-11-19T00:54:10;100716.31;;;15.50;87.74
73341;BME280;61578;52.002;5.468;2023-11-19T00:55:01;100696.88;;;15.48;87.81
73341;BME280;61578;52.002;5.468;2023-11-19T00:55:52;100688.16;;;15.46;87.86
73341;BME280;61578;52.002;5.468;2023-11-19T00:56:43;100685.03;;;15.41;87.83
73341;BME280;61578;52.002;5.468;2023-11-19T00:57:35;100701.13;;;15.51;87.55
73341;BME280;61578;52.002;5.468;2023-11-19T00:58:26;100711.09;;;15.48;87.59
73341;BME280;61578;52.002;5.468;2023-11-19T00:59:18;100699.56;;;15.48;87.53
73341;BME280;61578;52.002;5.468;2023-11-19T01:00:09;100698.69;;;15.47;87.68
73341;BME280;61578;52.002;5.468;2023-11-19T01:01:11;100702.94;;;15.50;87.40
73341;BME280;61578;52.002;5.468;2023-11-19T01:02:02;100686.00;;;15.40;87.48
73341;BME280;61578;52.002;5.468;2023-11-19T01:02:54;100693.50;;;15.46;87.57
73341;BME280;61578;52.002;5.468;2023-11-19T01:03:45;100693.34;;;15.47;87.28
73341;BME280;61578;52.002;5.468;2023-11-19T01:04:36;100688.84;;;15.48;87.44
73341;BME280;61578;52.002;5.468;2023-11-19T01:05:27;100696.19;;;15.46;87.12
73341;BME280;61578;52.002;5.468;2023-11-19T01:06:29;100702.50;;;15.45;87.42
73341;BME280;61578;52.002;5.468;2023-11-19T01:07:21;100693.09;;;15.51;87.26
73341;BME280;61578;52.002;5.468;2023-11-19T01:08:12;100685.75;;;15.43;87.11
73341;BME280;61578;52.002;5.468;2023-11-19T01:09:03;100694.06;;;15.50;87.02
73341;BME280;61578;52.002;5.468;2023-11-19T01:09:54;100698.88;;;15.46;87.27
73341;BME280;61578;52.002;5.468;2023-11-19T01:10:45;100615.28;;;15.02;86.86
73341;BME280;61578;52.002;5.468;2023-11-19T01:11:36;100693.91;;;15.41;86.81
73341;BME280;61578;52.002;5.468;2023-11-19T01:12:27;100699.97;;;15.43;87.29
73341;BME280;61578;52.002;5.468;2023-11-19T01:13:18;100703.63;;;15.42;87.07
73341;BME280;61578;52.002;5.468;2023-11-19T01:14:09;100698.94;;;15.35;87.14
73341;BME280;61578;52.002;5.468;2023-11-19T01:15:00;100704.59;;;15.41;87.27
73341;BME280;61578;52.002;5.468;2023-11-19T01:15:51;100708.38;;;15.39;87.05
73341;BME280;61578;52.002;5.468;2023-11-19T01:16:42;100712.03;;;15.38;87.28
73341;BME280;61578;52.002;5.468;2023-11-19T01:17:33;100710.19;;;15.38;87.03
73341;BME280;61578;52.002;5.468;2023-11-19T01:18:25;100714.03;;;15.36;87.29
73341;BME280;61578;52.002;5.468;2023-11-19T01:19:16;100708.66;;;15.36;87.40
73341;BME280;61578;52.002;5.468;2023-11-19T01:20:07;100727.41;;;15.36;87.59
73341;BME280;61578;52.002;5.468;2023-11-19T01:21:02;100693.59;;;15.35;87.38
73341;BME280;61578;52.002;5.468;2023-11-19T01:21:54;100704.72;;;15.40;87.42
73341;BME280;61578;52.002;5.468;2023-11-19T01:22:45;100694.75;;;15.42;87.47
73341;BME280;61578;52.002;5.468;2023-11-19T01:23:36;100674.53;;;15.28;87.03
73341;BME280;61578;52.002;5.468;2023-11-19T01:24:27;100693.34;;;15.47;86.93
73341;BME280;61578;52.002;5.468;2023-11-19T01:25:19;100692.78;;;15.44;86.70
73341;BME280;61578;52.002;5.468;2023-11-19T01:26:11;100698.88;;;15.46;86.78
73341;BME280;61578;52.002;5.468;2023-11-19T01:27:03;100691.81;;;15.45;86.90
73341;BME280;61578;52.002;5.468;2023-11-19T01:27:54;100690.84;;;15.46;86.84
73341;BME280;61578;52.002;5.468;2023-11-19T01:28:48;100685.75;;;15.43;86.88
73341;BME280;61578;52.002;5.468;2023-11-19T01:29:39;100685.03;;;15.41;86.96
73341;BME280;61578;52.002;5.468;2023-11-19T01:30:30;100685.16;;;15.39;86.52
73341;BME280;61578;52.002;5.468;2023-11-19T01:31:21;100681.38;;;15.42;87.01
73341;BME280;61578;52.002;5.468;2023-11-19T01:32:12;100675.44;;;15.38;86.70
73341;BME280;61578;52.002;5.468;2023-11-19T01:33:03;100677.00;;;15.41;86.58
73341;BME280;61578;52.002;5.468;2023-11-19T01:33:54;100680.25;;;15.44;86.77
73341;BME280;61578;52.002;5.468;2023-11-19T01:34:45;100684.91;;;15.42;86.63
73341;BME280;61578;52.002;5.468;2023-11-19T01:35:36;100685.63;;;15.44;86.42
73341;BME280;61578;52.002;5.468;2023-11-19T01:36:27;100692.50;;;15.47;86.28
73341;BME280;61578;52.002;5.468;2023-11-19T01:37:18;100682.94;;;15.44;86.19
73341;BME280;61578;52.002;5.468;2023-11-19T01:38:09;100689.13;;;15.45;86.24
73341;BME280;61578;52.002;5.468;2023-11-19T01:39:01;100694.75;;;15.42;86.64
73341;BME280;61578;52.002;5.468;2023-11-19T01:39:52;100691.81;;;15.45;86.28
73341;BME280;61578;52.002;5.468;2023-11-19T01:40:43;100690.25;;;15.42;86.19
73341;BME280;61578;52.002;5.468;2023-11-19T01:41:35;100679.94;;;15.38;86.08
73341;BME280;61578;52.002;5.468;2023-11-19T01:42:27;100684.47;;;15.47;86.08
73341;BME280;61578;52.002;5.468;2023-11-19T01:43:37;100679.66;;;15.41;86.14
73341;BME280;61578;52.002;5.468;2023-11-19T01:44:32;100695.72;;;15.41;86.38
73341;BME280;61578;52.002;5.468;2023-11-19T01:45:28;100692.91;;;15.42;85.88
73341;BME280;61578;52.002;5.468;2023-11-19T01:46:23;100690.25;;;15.42;85.75
73341;BME280;61578;52.002;5.468;2023-11-19T01:47:15;100669.97;;;15.19;86.06
73341;BME280;61578;52.002;5.468;2023-11-19T01:48:06;100682.16;;;15.33;85.78
73341;BME280;61578;52.002;5.468;2023-11-19T01:48:57;100698.81;;;15.36;86.11
73341;BME280;61578;52.002;5.468;2023-11-19T01:49:51;100693.75;;;15.43;85.81
73341;BME280;61578;52.002;5.468;2023-11-19T01:50:42;100688.09;;;15.36;85.59
73341;BME280;61578;52.002;5.468;2023-11-19T01:51:34;100687.94;;;15.38;86.08
73341;BME280;61578;52.002;5.468;2023-11-19T01:52:27;100695.72;;;15.41;85.72
73341;BME280;61578;52.002;5.468;2023-11-19T01:53:19;100696.13;;;15.36;85.91
73341;BME280;61578;52.002;5.468;2023-11-19T01:54:12;100689.94;;;15.36;86.03
73341;BME280;61578;52.002;5.468;2023-11-19T01:55:04;100691.91;;;15.34;85.81
73341;BME280;61578;52.002;5.468;2023-11-19T01:55:56;100689.88;;;15.26;85.79
73341;BME280;61578;52.002;5.468;2023-11-19T01:56:48;100688.25;;;15.35;86.15
73341;BME280;61578;52.002;5.468;2023-11-19T01:57:40;100685.69;;;15.33;85.73
73341;BME280;61578;52.002;5.468;2023-11-19T01:58:32;100684.72;;;15.34;85.52
73341;BME280;61578;52.002;5.468;2023-11-19T01:59:24;100675.25;;;15.30;85.53
73341;BME280;61578;52.002;5.468;2023-11-19T02:00:18;100684.84;;;15.33;85.47
73341;BME280;61578;52.002;5.468;2023-11-19T02:01:11;100675.13;;;15.32;85.40
73341;BME280;61578;52.002;5.468;2023-11-19T02:02:06;100669.03;;;15.30;85.21
73341;BME280;61578;52.002;5.468;2023-11-19T02:02:57;100671.59;;;15.31;84.96
73341;BME280;61578;52.002;5.468;2023-11-19T02:03:48;100675.84;;;15.34;85.20
73341;BME280;61578;52.002;5.468;2023-11-19T02:04:39;100671.72;;;15.30;84.77
73341;BME280;61578;52.002;5.468;2023-11-19T02:05:32;100678.91;;;15.29;84.96
73341;BME280;61578;52.002;5.468;2023-11-19T02:06:26;100630.06;;;15.06;85.20
73341;BME280;61578;52.002;5.468;2023-11-19T02:07:19;100666.31;;;15.20;84.87
73341;BME280;61578;52.002;5.468;2023-11-19T02:08:11;100670.38;;;15.15;84.84
73341;BME280;61578;52.002;5.468;2023-11-19T02:09:04;100670.38;;;15.15;84.99
73341;BME280;61578;52.002;5.468;2023-11-19T02:09:58;100669.19;;;15.07;84.93
73341;BME280;61578;52.002;5.468;2023-11-19T02:10:52;100669.47;;;15.04;85.17
73341;BME280;61578;52.002;5.468;2023-11-19T02:11:47;100673.13;;;15.03;85.26
73341;BME280;61578;52.002;5.468;2023-11-19T02:12:42;100677.63;;;15.03;85.47
73341;BME280;61578;52.002;5.468;2023-11-19T02:13:34;100660.97;;;14.99;85.38
73341;BME280;61578;52.002;5.468;2023-11-19T02:14:27;100663.59;;;14.90;85.39
73341;BME280;61578;52.002;5.468;2023-11-19T02:15:19;100668.81;;;14.91;85.60
73341;BME280;61578;52.002;5.468;2023-11-19T02:16:10;100674.28;;;14.90;85.59
73341;BME280;61578;52.002;5.468;2023-11-19T02:17:01;100679.44;;;14.82;85.66
73341;BME280;61578;52.002;5.468;2023-11-19T02:17:53;100667.78;;;14.83;85.49
73341;BME280;61578;52.002;5.468;2023-11-19T02:18:44;100682.13;;;14.82;85.72
73341;BME280;61578;52.002;5.468;2023-11-19T02:19:35;100676.75;;;14.82;85.96
73341;BME280;61578;52.002;5.468;2023-11-19T02:20:26;100682.72;;;14.85;85.60
73341;BME280;61578;52.002;5.468;2023-11-19T02:21:17;100678.34;;;14.84;85.93
73341;BME280;61578;52.002;5.468;2023-11-19T02:22:08;100679.56;;;14.80;85.79
73341;BME280;61578;52.002;5.468;2023-11-19T02:22:59;100676.88;;;14.80;85.62
73341;BME280;61578;52.002;5.468;2023-11-19T02:23:51;100681.25;;;14.81;85.80
73341;BME280;61578;52.002;5.468;2023-11-19T02:24:43;100678.59;;;14.81;85.44
73341;BME280;61578;52.002;5.468;2023-11-19T02:25:40;100681.88;;;14.85;85.60
73341;BME280;61578;52.002;5.468;2023-11-19T02:26:40;100635.38;;;14.55;85.35
73341;BME280;61578;52.002;5.468;2023-11-19T02:28:52;100685.63;;;14.82;85.24
73341;BME280;61578;52.002;5.468;2023-11-19T02:29:44;100680.16;;;14.84;85.34
73341;BME280;61578;52.002;5.468;2023-11-19T02:30:35;100684.47;;;14.75;85.14
73341;BME280;61578;52.002;5.468;2023-11-19T02:31:26;100653.41;;;14.63;85.18
73341;BME280;61578;52.002;5.468;2023-11-19T02:32:18;100690.97;;;14.82;85.05
73341;BME280;61578;52.002;5.468;2023-11-19T02:33:09;100686.84;;;14.78;85.06
73341;BME280;61578;52.002;5.468;2023-11-19T02:34:00;100651.47;;;14.65;85.11
73341;BME280;61578;52.002;5.468;2023-11-19T02:34:53;100691.22;;;14.79;84.76
73341;BME280;61578;52.002;5.468;2023-11-19T02:35:44;100624.25;;;14.39;84.93
73341;BME280;61578;52.002;5.468;2023-11-19T02:36:35;100688.22;;;14.72;85.04
73341;BME280;61578;52.002;5.468;2023-11-19T02:37:26;100699.66;;;14.75;85.11
73341;BME280;61578;52.002;5.468;2023-11-19T02:38:18;100695.53;;;14.70;85.22
73341;BME280;61578;52.002;5.468;2023-11-19T02:39:09;100693.69;;;14.71;85.25
73341;BME280;61578;52.002;5.468;2023-11-19T02:40:03;100696.75;;;14.66;84.93
73341;BME280;61578;52.002;5.468;2023-11-19T02:40:56;100699.56;;;14.65;85.15
73341;BME280;61578;52.002;5.468;2023-11-19T02:41:48;100693.88;;;14.58;85.07
73341;BME280;61578;52.002;5.468;2023-11-19T02:42:44;100676.75;;;14.61;85.12
73341;BME280;61578;52.002;5.468;2023-11-19T02:43:36;100646.09;;;14.44;84.80
73341;BME280;61578;52.002;5.468;2023-11-19T02:44:28;100689.56;;;14.67;84.70
73341;BME280;61578;52.002;5.468;2023-11-19T02:45:23;100692.78;;;14.61;84.78
73341;BME280;61578;52.002;5.468;2023-11-19T02:46:14;100691.06;;;14.60;84.95
73341;BME280;61578;52.002;5.468;2023-11-19T02:47:08;100682.84;;;14.52;84.68
73341;BME280;61578;52.002;5.468;2023-11-19T02:47:59;100681.59;;;14.56;84.67
73341;BME280;61578;52.002;5.468;2023-11-19T02:48:52;100691.31;;;14.57;84.70
73341;BME280;61578;52.002;5.468;2023-11-19T02:49:43;100648.06;;;14.31;84.54
73341;BME280;61578;52.002;5.468;2023-11-19T02:50:34;100691.84;;;14.51;84.96
73341;BME280;61578;52.002;5.468;2023-11-19T02:51:25;100691.00;;;14.50;84.43
73341;BME280;61578;52.002;5.468;2023-11-19T02:52:18;100692.69;;;14.51;84.52
73341;BME280;61578;52.002;5.468;2023-11-19T02:53:09;100688.44;;;14.49;84.72
73341;BME280;61578;52.002;5.468;2023-11-19T02:54:01;100678.72;;;14.48;84.29
73341;BME280;61578;52.002;5.468;2023-11-19T02:54:54;100682.25;;;14.48;84.55
73341;BME280;61578;52.002;5.468;2023-11-19T02:55:46;100686.75;;;14.48;84.48
73341;BME280;61578;52.002;5.468;2023-11-19T02:56:42;100673.19;;;14.40;84.18
73341;BME280;61578;52.002;5.468;2023-11-19T02:57:33;100683.69;;;14.52;84.62
73341;BME280;61578;52.002;5.468;2023-11-19T02:58:24;100683.81;;;14.51;84.56
73341;BME280;61578;52.002;5.468;2023-11-19T02:59:16;100686.50;;;14.51;84.07
73341;BME280;61578;52.002;5.468;2023-11-19T03:00:19;100668.78;;;14.50;83.96
73341;BME280;61578;52.002;5.468;2023-11-19T03:01:21;100680.09;;;14.42;84.25
73341;BME280;61578;52.002;5.468;2023-11-19T03:02:24;100669.00;;;14.47;84.29
73341;BME280;61578;52.002;5.468;2023-11-19T03:03:25;100667.72;;;14.41;84.21
73341;BME280;61578;52.002;5.468;2023-11-19T03:04:28;100666.75;;;14.42;84.45
73341;BME280;61578;52.002;5.468;2023-11-19T03:05:19;100669.66;;;14.39;84.30
73341;BME280;61578;52.002;5.468;2023-11-19T03:06:10;100669.75;;;14.37;84.09
73341;BME280;61578;52.002;5.468;2023-11-19T03:07:02;100681.28;;;14.38;84.13
73341;BME280;61578;52.002;5.468;2023-11-19T03:07:53;100677.44;;;14.31;84.34
73341;BME280;61578;52.002;5.468;2023-11-19T03:08:44;100642.31;;;14.04;84.49
73341;BME280;61578;52.002;5.468;2023-11-19T03:09:35;100690.91;;;14.29;84.44
73341;BME280;61578;52.002;5.468;2023-11-19T03:10:26;100683.53;;;14.22;84.56
73341;BME280;61578;52.002;5.468;2023-11-19T03:11:17;100688.00;;;14.32;84.59
73341;BME280;61578;52.002;5.468;2023-11-19T03:12:08;100688.09;;;14.31;84.09
73341;BME280;61578;52.002;5.468;2023-11-19T03:13:00;100685.44;;;14.31;84.11
73341;BME280;61578;52.002;5.468;2023-11-19T03:13:52;100642.16;;;14.05;84.63
73341;BME280;61578;52.002;5.468;2023-11-19T03:14:43;100686.53;;;14.28;84.34
73341;BME280;61578;52.002;5.468;2023-11-19T03:15:35;100691.75;;;14.30;84.13
73341;BME280;61578;52.002;5.468;2023-11-19T03:16:26;100697.81;;;14.32;84.12
73341;BME280;61578;52.002;5.468;2023-11-19T03:17:17;100692.47;;;14.32;83.93
73341;BME280;61578;52.002;5.468;2023-11-19T03:18:09;100698.56;;;14.34;83.99
73341;BME280;61578;52.002;5.468;2023-11-19T03:19:00;100691.38;;;14.34;84.17
73341;BME280;61578;52.002;5.468;2023-11-19T03:19:51;100672.69;;;14.34;83.77
73341;BME280;61578;52.002;5.468;2023-11-19T03:20:43;100695.88;;;14.34;83.84
73341;BME280;61578;52.002;5.468;2023-11-19T03:21:34;100695.88;;;14.34;84.17
73341;BME280;61578;52.002;5.468;2023-11-19T03:22:25;100683.84;;;14.28;83.43
73341;BME280;61578;52.002;5.468;2023-11-19T03:23:16;100689.59;;;14.24;83.97
73341;BME280;61578;52.002;5.468;2023-11-19T03:24:07;100694.31;;;14.20;84.08
73341;BME280;61578;52.002;5.468;2023-11-19T03:24:59;100691.78;;;14.19;84.03
73341;BME280;61578;52.002;5.468;2023-11-19T03:25:50;100685.81;;;14.15;83.92
73341;BME280;61578;52.002;5.468;2023-11-19T03:26:41;100685.81;;;14.15;83.97
73341;BME280;61578;52.002;5.468;2023-11-19T03:27:36;100639.28;;;13.86;83.93
73341;BME280;61578;52.002;5.468;2023-11-19T03:28:32;100690.72;;;14.10;83.68
73341;BME280;61578;52.002;5.468;2023-11-19T03:29:23;100686.94;;;14.13;84.26
73341;BME280;61578;52.002;5.468;2023-11-19T03:30:14;100678.56;;;14.06;84.24
73341;BME280;61578;52.002;5.468;2023-11-19T03:31:05;100665.22;;;14.06;84.32
73341;BME280;61578;52.002;5.468;2023-11-19T03:31:59;100681.00;;;14.09;84.04
73341;BME280;61578;52.002;5.468;2023-11-19T03:32:50;100683.78;;;14.08;84.00
73341;BME280;61578;52.002;5.468;2023-11-19T03:33:41;100682.19;;;14.05;83.87
73341;BME280;61578;52.002;5.468;2023-11-19T03:34:32;100689.38;;;14.05;84.00
73341;BME280;61578;52.002;5.468;2023-11-19T03:35:24;100685.63;;;13.96;83.78
73341;BME280;61578;52.002;5.468;2023-11-19T03:36:15;100684.53;;;13.98;83.58
73341;BME280;61578;52.002;5.468;2023-11-19T03:37:06;100678.34;;;13.98;83.76
73341;BME280;61578;52.002;5.468;2023-11-19T03:37:57;100677.72;;;13.94;84.21
73341;BME280;61578;52.002;5.468;2023-11-19T03:38:48;100681.53;;;13.92;83.69
73341;BME280;61578;52.002;5.468;2023-11-19T03:39:39;100680.78;;;13.90;84.03
73341;BME280;61578;52.002;5.468;2023-11-19T03:40:30;100683.56;;;13.88;84.12
73341;BME280;61578;52.002;5.468;2023-11-19T03:41:21;100685.41;;;13.88;84.02
73341;BME280;61578;52.002;5.468;2023-11-19T03:42:12;100677.78;;;13.83;84.14
73341;BME280;61578;52.002;5.468;2023-11-19T03:43:04;100676.78;;;13.84;84.41
73341;BME280;61578;52.002;5.468;2023-11-19T03:43:56;100668.31;;;13.79;84.25
73341;BME280;61578;52.002;5.468;2023-11-19T03:44:47;100667.47;;;13.79;84.46
73341;BME280;61578;52.002;5.468;2023-11-19T03:45:40;100666.38;;;13.81;84.57
73341;BME280;61578;52.002;5.468;2023-11-19T03:46:31;100672.56;;;13.82;84.29
73341;BME280;61578;52.002;5.468;2023-11-19T03:47:22;100664.78;;;13.79;84.16
73341;BME280;61578;52.002;5.468;2023-11-19T03:48:14;100656.78;;;13.79;84.11
73341;BME280;61578;52.002;5.468;2023-11-19T03:49:06;100658.84;;;13.75;84.13
73341;BME280;61578;52.002;5.468;2023-11-19T03:49:57;100659.00;;;13.74;84.01
73341;BME280;61578;52.002;5.468;2023-11-19T03:50:48;100652.31;;;13.68;84.07
73341;BME280;61578;52.002;5.468;2023-11-19T03:51:39;100667.97;;;13.73;84.21
73341;BME280;61578;52.002;5.468;2023-11-19T03:52:31;100662.63;;;13.73;84.21
73341;BME280;61578;52.002;5.468;2023-11-19T03:53:22;100669.91;;;13.71;84.04
73341;BME280;61578;52.002;5.468;2023-11-19T03:54:15;100669.03;;;13.70;84.07
73341;BME280;61578;52.002;5.468;2023-11-19T03:55:06;100668.44;;;13.67;84.11
73341;BME280;61578;52.002;5.468;2023-11-19T03:55:59;100671.47;;;13.62;84.21
73341;BME280;61578;52.002;5.468;2023-11-19T03:56:50;100682.03;;;13.63;84.54
73341;BME280;61578;52.002;5.468;2023-11-19T03:57:41;100689.66;;;13.68;84.46
73341;BME280;61578;52.002;5.468;2023-11-19T03:58:32;100691.47;;;13.68;84.37
73341;BME280;61578;52.002;5.468;2023-11-19T03:59:23;100666.16;;;13.51;84.11
73341;BME280;61578;52.002;5.468;2023-11-19T04:00:14;100690.84;;;13.64;83.93
73341;BME280;61578;52.002;5.468;2023-11-19T04:01:11;100684.69;;;13.63;84.31
73341;BME280;61578;52.002;5.468;2023-11-19T04:02:05;100685.53;;;13.64;83.98
73341;BME280;61578;52.002;5.468;2023-11-19T04:02:57;100685.91;;;13.59;84.23
73341;BME280;61578;52.002;5.468;2023-11-19T04:03:48;100693.16;;;13.57;84.30
73341;BME280;61578;52.002;5.468;2023-11-19T04:04:39;100677.16;;;13.57;84.05
73341;BME280;61578;52.002;5.468;2023-11-19T04:05:30;100678.50;;;13.52;84.21
73341;BME280;61578;52.002;5.468;2023-11-19T04:06:21;100684.56;;;13.54;84.63
73341;BME280;61578;52.002;5.468;2023-11-19T04:07:12;100676.44;;;13.55;83.96
73341;BME280;61578;52.002;5.468;2023-11-19T04:08:03;100681.19;;;13.52;84.06
73341;BME280;61578;52.002;5.468;2023-11-19T04:08:56;100679.38;;;13.52;84.43
73341;BME280;61578;52.002;5.468;2023-11-19T04:09:47;100677.16;;;13.46;84.20
73341;BME280;61578;52.002;5.468;2023-11-19T04:10:38;100689.88;;;13.54;84.32
73341;BME280;61578;52.002;5.468;2023-11-19T04:11:29;100685.16;;;13.57;84.09
73341;BME280;61578;52.002;5.468;2023-11-19T04:12:20;100688.56;;;13.59;84.06
73341;BME280;61578;52.002;5.468;2023-11-19T04:13:12;100647.69;;;13.37;83.41
73341;BME280;61578;52.002;5.468;2023-11-19T04:14:03;100684.19;;;13.58;83.78
73341;BME280;61578;52.002;5.468;2023-11-19T04:14:55;100642.59;;;13.34;84.11
73341;BME280;61578;52.002;5.468;2023-11-19T04:15:46;100695.84;;;13.57;83.94
73341;BME280;61578;52.002;5.468;2023-11-19T04:16:38;100698.38;;;13.59;83.78
73341;BME280;61578;52.002;5.468;2023-11-19T04:17:29;100664.31;;;13.40;83.71
73341;BME280;61578;52.002;5.468;2023-11-19T04:18:20;100690.63;;;13.56;83.60
73341;BME280;61578;52.002;5.468;2023-11-19T04:19:11;100680.22;;;13.42;84.00
73341;BME280;61578;52.002;5.468;2023-11-19T04:20:02;100696.06;;;13.54;83.75
73341;BME280;61578;52.002;5.468;2023-11-19T04:20:54;100695.22;;;13.54;83.81
73341;BME280;61578;52.002;5.468;2023-11-19T04:21:46;100697.19;;;13.52;83.46
73341;BME280;61578;52.002;5.468;2023-11-19T04:22:37;100704.91;;;13.55;83.54
73341;BME280;61578;52.002;5.468;2023-11-19T04:23:28;100696.78;;;13.45;83.82
73341;BME280;61578;52.002;5.468;2023-11-19T04:24:19;100669.75;;;13.27;83.77
73341;BME280;61578;52.002;5.468;2023-11-19T04:25:11;100700.81;;;13.51;83.43
73341;BME280;61578;52.002;5.468;2023-11-19T04:26:02;100688.22;;;13.42;83.46
73341;BME280;61578;52.002;5.468;2023-11-19T04:26:54;100699.56;;;13.44;83.79
73341;BME280;61578;52.002;5.468;2023-11-19T04:27:46;100699.22;;;13.48;83.75
73341;BME280;61578;52.002;5.468;2023-11-19T04:28:38;100698.88;;;13.42;83.77
73341;BME280;61578;52.002;5.468;2023-11-19T04:29:30;100709.06;;;13.48;83.68
73341;BME280;61578;52.002;5.468;2023-11-19T04:30:21;100698.88;;;13.42;83.18
73341;BME280;61578;52.002;5.468;2023-11-19T04:31:12;100701.66;;;13.51;83.49
73341;BME280;61578;52.002;5.468;2023-11-19T04:32:04;100663.69;;;13.25;83.08
73341;BME280;61578;52.002;5.468;2023-11-19T04:32:56;100703.38;;;13.52;83.41